createdAt,value
2019-01-21T00:01:31.682Z,-3.47
2019-01-21T00:03:58.465Z,-3.53
2019-01-21T00:06:25.228Z,-3.50
2019-01-21T00:08:52.049Z,-3.49
2019-01-21T00:11:18.822Z,-3.35
2019-01-21T00:13:45.609Z,-3.45
2019-01-21T00:16:12.388Z,-3.49
2019-01-21T00:18:39.157Z,-3.55
2019-01-21T00:21:05.958Z,-3.39
2019-01-21T00:23:32.744Z,-3.32
2019-01-21T00:25:59.552Z,-3.51
2019-01-21T00:28:26.316Z,-3.60
2019-01-21T00:30:53.103Z,-3.49
2019-01-21T00:33:19.945Z,-3.52
2019-01-21T00:35:46.745Z,-3.59
2019-01-21T00:38:13.532Z,-3.44
2019-01-21T00:40:40.310Z,-3.49
2019-01-21T00:43:07.085Z,-3.63
2019-01-21T00:45:33.898Z,-3.46
2019-01-21T00:48:00.661Z,-3.41
2019-01-21T00:50:27.451Z,-3.49
2019-01-21T00:52:54.212Z,-3.45
2019-01-21T00:55:21.023Z,-3.43
2019-01-21T00:57:47.810Z,-3.54
2019-01-21T01:00:18.211Z,-3.44
2019-01-21T01:02:45.027Z,-3.54
2019-01-21T01:05:11.864Z,-3.51
2019-01-21T01:07:38.988Z,-3.56
2019-01-21T01:10:06.397Z,-3.62
2019-01-21T01:12:33.174Z,-3.76
2019-01-21T01:14:59.997Z,-3.69
2019-01-21T01:17:26.827Z,-3.75
2019-01-21T01:19:53.627Z,-3.79
2019-01-21T01:22:20.396Z,-3.73
2019-01-21T01:24:47.218Z,-3.76
2019-01-21T01:27:14.028Z,-3.78
2019-01-21T01:29:40.787Z,-3.82
2019-01-21T01:32:07.602Z,-3.85
2019-01-21T01:34:34.373Z,-3.87
2019-01-21T01:37:01.178Z,-3.86
2019-01-21T01:39:28.077Z,-3.95
2019-01-21T01:41:54.896Z,-3.87
2019-01-21T01:44:21.721Z,-3.87
2019-01-21T01:46:48.504Z,-3.90
2019-01-21T01:49:15.317Z,-3.93
2019-01-21T01:51:42.102Z,-3.91
2019-01-21T01:54:08.890Z,-3.94
2019-01-21T01:56:35.705Z,-3.90
2019-01-21T01:59:02.489Z,-3.98
2019-01-21T02:01:29.293Z,-4.01
2019-01-21T02:03:56.065Z,-4.06
2019-01-21T02:06:22.890Z,-4.09
2019-01-21T02:08:49.922Z,-4.09
2019-01-21T02:11:16.780Z,-4.09
2019-01-21T02:13:43.553Z,-4.03
2019-01-21T02:16:10.382Z,-4.08
2019-01-21T02:18:37.170Z,-4.16
2019-01-21T02:21:04.365Z,-4.17
2019-01-21T02:23:35.265Z,-4.21
2019-01-21T02:26:03.521Z,-4.17
2019-01-21T02:28:44.577Z,-4.12
2019-01-21T02:31:22.962Z,-4.17
2019-01-21T02:34:04.549Z,-4.21
2019-01-21T02:36:46.317Z,-4.19
2019-01-21T02:39:27.869Z,-4.20
2019-01-21T02:42:07.486Z,-4.17
2019-01-21T02:44:47.909Z,-4.16
2019-01-21T02:47:23.143Z,-4.27
2019-01-21T02:50:01.062Z,-4.35
2019-01-21T02:52:39.244Z,-4.36
2019-01-21T02:55:34.045Z,-4.32
2019-01-21T02:58:12.893Z,-4.38
2019-01-21T03:01:11.648Z,-4.39
2019-01-21T03:03:48.332Z,-4.43
2019-01-21T03:06:43.255Z,-4.41
2019-01-21T03:09:24.049Z,-4.51
2019-01-21T03:12:19.182Z,-4.39
2019-01-21T03:14:58.398Z,-4.29
2019-01-21T03:17:45.630Z,-4.41
2019-01-21T03:20:22.959Z,-4.33
2019-01-21T03:23:02.382Z,-4.43
2019-01-21T03:25:44.646Z,-4.29
2019-01-21T03:28:37.095Z,-4.44
2019-01-21T03:31:29.285Z,-4.29
2019-01-21T03:34:17.679Z,-4.22
2019-01-21T03:37:03.235Z,-4.39
2019-01-21T03:40:06.065Z,-4.38
2019-01-21T03:42:47.094Z,-4.43
2019-01-21T03:45:26.077Z,-4.59
2019-01-21T03:48:02.985Z,-4.64
2019-01-21T03:50:59.199Z,-4.74
2019-01-21T03:54:06.869Z,-4.72
2019-01-21T03:56:40.206Z,-4.74
2019-01-21T03:59:33.533Z,-4.69
2019-01-21T04:02:20.451Z,-4.78
2019-01-21T04:04:59.302Z,-4.87
2019-01-21T04:07:38.765Z,-4.86
2019-01-21T04:10:35.958Z,-4.86
2019-01-21T04:13:19.385Z,-4.82
2019-01-21T04:16:11.113Z,-4.87
2019-01-21T04:18:59.389Z,-4.83
2019-01-21T04:21:53.634Z,-4.81
2019-01-21T04:25:02.045Z,-4.76
2019-01-21T04:27:54.763Z,-4.87
2019-01-21T04:30:31.758Z,-4.90
2019-01-21T04:33:10.228Z,-4.97
2019-01-21T04:36:18.134Z,-4.97
2019-01-21T04:38:58.765Z,-5.00
2019-01-21T04:41:42.759Z,-5.01
2019-01-21T04:44:38.822Z,-4.93
2019-01-21T04:47:22.255Z,-4.92
2019-01-21T04:50:22.672Z,-4.89
2019-01-21T04:53:09.514Z,-4.89
2019-01-21T04:56:16.530Z,-4.85
2019-01-21T04:59:07.736Z,-4.79
2019-01-21T05:01:47.225Z,-4.91
2019-01-21T05:04:28.282Z,-4.90
2019-01-21T05:07:10.209Z,-4.93
2019-01-21T05:09:54.158Z,-4.95
2019-01-21T05:12:38.900Z,-4.91
2019-01-21T05:15:19.426Z,-4.93
2019-01-21T05:18:25.408Z,-4.90
2019-01-21T05:21:18.547Z,-4.83
2019-01-21T05:24:11.190Z,-4.82
2019-01-21T05:26:49.163Z,-4.86
2019-01-21T05:29:23.971Z,-5.03
2019-01-21T05:32:18.162Z,-5.01
2019-01-21T05:35:11.179Z,-5.02
2019-01-21T05:37:48.910Z,-5.00
2019-01-21T05:40:37.685Z,-4.94
2019-01-21T05:43:32.595Z,-4.91
2019-01-21T05:46:28.720Z,-4.92
2019-01-21T05:49:17.984Z,-4.90
2019-01-21T05:52:17.224Z,-4.97
2019-01-21T05:55:02.049Z,-4.98
2019-01-21T05:57:41.075Z,-4.92
2019-01-21T06:00:17.794Z,-4.80
2019-01-21T06:02:58.306Z,-4.90
2019-01-21T06:05:41.038Z,-4.83
2019-01-21T06:08:28.425Z,-4.91
2019-01-21T06:11:04.320Z,-4.95
2019-01-21T06:13:47.125Z,-4.95
2019-01-21T06:16:39.736Z,-4.91
2019-01-21T06:19:32.637Z,-4.98
2019-01-21T06:22:25.830Z,-4.97
2019-01-21T06:25:26.004Z,-4.96
2019-01-21T06:28:07.816Z,-5.02
2019-01-21T06:30:46.217Z,-5.03
2019-01-21T06:33:45.226Z,-5.01
2019-01-21T06:36:21.541Z,-5.06
2019-01-21T06:39:15.668Z,-5.03
2019-01-21T06:42:10.869Z,-4.93
2019-01-21T06:44:52.529Z,-4.94
2019-01-21T06:47:46.037Z,-5.01
2019-01-21T06:50:22.181Z,-5.04
2019-01-21T06:53:08.461Z,-4.99
2019-01-21T06:55:48.588Z,-4.94
2019-01-21T06:58:50.576Z,-4.88
2019-01-21T07:01:45.272Z,-4.91
2019-01-21T07:04:52.840Z,-4.95
2019-01-21T07:07:51.905Z,-4.92
2019-01-21T07:10:44.644Z,-4.82
2019-01-21T07:13:25.146Z,-4.84
2019-01-21T07:16:07.232Z,-4.86
2019-01-21T07:18:54.917Z,-4.91
2019-01-21T07:21:36.444Z,-4.87
2019-01-21T07:24:31.068Z,-4.90
2019-01-21T07:27:39.885Z,-4.91
2019-01-21T07:30:20.169Z,-4.95
2019-01-21T07:33:17.829Z,-4.87
2019-01-21T07:36:19.522Z,-4.82
2019-01-21T07:38:55.145Z,-4.79
2019-01-21T07:41:43.549Z,-4.69
2019-01-21T07:44:36.058Z,-4.75
2019-01-21T07:47:29.901Z,-4.61
2019-01-21T07:50:10.658Z,-4.53
2019-01-21T07:53:24.730Z,-4.52
2019-01-21T07:56:20.589Z,-4.45
2019-01-21T07:59:15.322Z,-4.51
2019-01-21T08:01:51.065Z,-4.42
2019-01-21T08:04:44.050Z,-4.31
2019-01-21T08:07:25.134Z,-4.34
2019-01-21T08:10:27.037Z,-4.34
2019-01-21T08:13:29.149Z,-4.32
2019-01-21T08:16:33.456Z,-4.30
2019-01-21T08:19:24.057Z,-4.30
2019-01-21T08:22:10.749Z,-4.22
2019-01-21T08:24:57.919Z,-4.07
2019-01-21T08:27:51.176Z,-3.91
2019-01-21T08:30:27.201Z,-3.86
2019-01-21T08:33:23.037Z,-4.05
2019-01-21T08:36:11.167Z,-3.97
2019-01-21T08:39:08.409Z,-3.85
2019-01-21T08:41:58.941Z,-3.89
2019-01-21T08:44:50.994Z,-3.77
2019-01-21T08:47:32.829Z,-3.57
2019-01-21T08:50:11.784Z,-3.48
2019-01-21T08:53:08.526Z,-3.50
2019-01-21T08:55:48.670Z,-3.39
2019-01-21T08:58:32.937Z,-3.12
2019-01-21T09:01:25.690Z,-3.29
2019-01-21T09:04:24.808Z,-3.24
2019-01-21T09:07:06.261Z,-3.22
2019-01-21T09:09:43.865Z,-3.18
2019-01-21T09:12:20.561Z,-2.90
2019-01-21T09:14:58.213Z,-2.69
2019-01-21T09:17:41.652Z,-2.89
2019-01-21T09:20:17.473Z,-2.87
2019-01-21T09:22:53.476Z,-2.67
2019-01-21T09:25:30.821Z,-2.55
2019-01-21T09:28:11.428Z,-2.46
2019-01-21T09:31:11.028Z,-2.46
2019-01-21T09:33:48.328Z,-2.41
2019-01-21T09:36:45.580Z,-2.06
2019-01-21T09:39:29.533Z,-2.20
2019-01-21T09:42:04.924Z,-2.03
2019-01-21T09:44:42.340Z,-2.38
2019-01-21T09:47:08.340Z,-2.38
2019-01-21T09:49:34.321Z,-2.01
2019-01-21T09:52:05.146Z,-1.85
2019-01-21T09:54:31.393Z,-1.91
2019-01-21T09:56:58.196Z,-1.88
2019-01-21T09:59:24.961Z,-1.66
2019-01-21T10:01:53.868Z,-1.71
2019-01-21T10:04:25.401Z,-1.62
2019-01-21T10:07:02.796Z,-1.60
2019-01-21T10:09:41.835Z,-1.63
2019-01-21T10:12:44.064Z,-1.38
2019-01-21T10:15:16.885Z,-1.39
2019-01-21T10:18:02.017Z,-1.42
2019-01-21T10:21:00.417Z,-1.30
2019-01-21T10:23:55.121Z,-1.20
2019-01-21T10:26:42.136Z,-1.29
2019-01-21T10:29:24.772Z,-1.12
2019-01-21T10:32:20.273Z,-0.96
2019-01-21T10:35:14.573Z,-0.94
2019-01-21T10:37:58.411Z,-0.77
2019-01-21T10:40:53.845Z,-0.80
2019-01-21T10:43:40.138Z,-0.87
2019-01-21T10:46:21.397Z,-0.71
2019-01-21T10:49:00.026Z,-0.73
2019-01-21T10:51:54.153Z,-0.72
2019-01-21T10:54:34.449Z,-0.62
2019-01-21T10:57:18.384Z,-0.47
2019-01-21T11:00:17.368Z,-0.41
2019-01-21T11:03:05.033Z,-0.44
2019-01-21T11:05:42.990Z,-0.21
2019-01-21T11:08:28.718Z,-0.42
2019-01-21T11:11:06.048Z,-0.23
2019-01-21T11:14:04.426Z,-0.16
2019-01-21T11:16:48.865Z,0.12
2019-01-21T11:19:30.874Z,-0.05
2019-01-21T11:22:06.084Z,0.01
2019-01-21T11:24:49.065Z,-0.01
2019-01-21T11:27:41.637Z,0.03
2019-01-21T11:30:50.338Z,-0.22
2019-01-21T11:33:49.952Z,0.02
2019-01-21T11:36:36.476Z,0.15
2019-01-21T11:39:38.725Z,0.08
2019-01-21T11:42:16.970Z,0.26
2019-01-21T11:44:59.489Z,0.19
2019-01-21T11:47:41.089Z,0.10
2019-01-21T11:50:34.693Z,0.31
2019-01-21T11:53:17.113Z,0.16
2019-01-21T11:55:53.170Z,0.21
2019-01-21T11:58:45.581Z,0.18
2019-01-21T12:01:28.135Z,0.06
2019-01-21T12:04:02.901Z,0.34
2019-01-21T12:06:36.782Z,0.75
2019-01-21T12:09:14.117Z,0.55
2019-01-21T12:11:46.866Z,0.50
2019-01-21T12:14:21.814Z,0.62
2019-01-21T12:17:04.016Z,0.38
2019-01-21T12:19:44.809Z,0.59
2019-01-21T12:22:41.786Z,0.78
2019-01-21T12:25:31.833Z,0.54
2019-01-21T12:28:20.457Z,0.41
2019-01-21T12:31:11.373Z,0.52
2019-01-21T12:33:50.016Z,0.69
2019-01-21T12:36:40.325Z,0.68
2019-01-21T12:39:18.735Z,0.67
2019-01-21T12:41:54.976Z,0.76
2019-01-21T12:44:51.994Z,0.89
2019-01-21T12:47:24.882Z,0.48
2019-01-21T12:50:03.238Z,0.82
2019-01-21T12:52:36.825Z,0.96
2019-01-21T12:55:14.317Z,0.70
2019-01-21T12:58:04.798Z,1.00
2019-01-21T13:00:46.714Z,1.07
2019-01-21T13:03:29.514Z,1.00
2019-01-21T13:06:11.120Z,1.07
2019-01-21T13:09:03.959Z,0.77
2019-01-21T13:11:59.398Z,1.16
2019-01-21T13:14:39.662Z,1.18
2019-01-21T13:17:23.348Z,1.18
2019-01-21T13:20:15.400Z,0.94
2019-01-21T13:22:51.574Z,0.94
2019-01-21T13:25:45.990Z,0.72
2019-01-21T13:28:42.560Z,1.03
2019-01-21T13:31:31.376Z,1.01
2019-01-21T13:34:21.777Z,0.99
2019-01-21T13:37:09.065Z,0.94
2019-01-21T13:40:06.228Z,0.81
2019-01-21T13:43:01.256Z,1.09
2019-01-21T13:45:44.969Z,0.91
2019-01-21T13:48:20.696Z,1.12
2019-01-21T13:51:24.237Z,1.25
2019-01-21T13:54:16.065Z,0.92
2019-01-21T13:57:01.056Z,1.06
2019-01-21T13:59:43.233Z,1.14
2019-01-21T14:02:23.621Z,1.05
2019-01-21T14:05:10.287Z,1.11
2019-01-21T14:07:53.941Z,1.18
2019-01-21T14:10:29.459Z,1.01
2019-01-21T14:13:11.421Z,1.18
2019-01-21T14:15:44.317Z,0.92
2019-01-21T14:18:32.461Z,1.22
2019-01-21T14:21:14.212Z,1.01
2019-01-21T14:23:52.358Z,0.94
2019-01-21T14:26:47.821Z,1.24
2019-01-21T14:29:24.601Z,1.24
2019-01-21T14:32:26.265Z,1.00
2019-01-21T14:35:23.973Z,1.16
2019-01-21T14:38:23.605Z,1.24
2019-01-21T14:41:02.054Z,1.38
2019-01-21T14:43:42.004Z,0.99
2019-01-21T14:46:19.149Z,1.11
2019-01-21T14:49:18.926Z,0.86
2019-01-21T14:54:49.810Z,0.63
2019-01-21T14:57:52.454Z,0.88
2019-01-21T15:00:30.798Z,0.74
2019-01-21T15:03:29.818Z,1.04
2019-01-21T15:06:12.392Z,1.06
2019-01-21T15:09:04.540Z,1.10
2019-01-21T15:11:57.618Z,0.76
2019-01-21T15:14:41.743Z,1.07
2019-01-21T15:17:26.576Z,1.18
2019-01-21T15:20:01.399Z,0.79
2019-01-21T15:22:56.599Z,0.91
2019-01-21T15:25:37.908Z,0.99
2019-01-21T15:28:21.409Z,0.84
2019-01-21T15:31:02.721Z,0.84
2019-01-21T15:33:56.554Z,0.93
2019-01-21T15:36:48.291Z,0.56
2019-01-21T15:39:40.869Z,0.85
2019-01-21T15:42:34.361Z,0.70
2019-01-21T15:45:17.657Z,0.68
2019-01-21T15:47:57.212Z,0.67
2019-01-21T15:50:48.252Z,0.27
2019-01-21T15:53:24.692Z,0.45
2019-01-21T15:55:57.024Z,0.57
2019-01-21T15:59:07.996Z,0.18
2019-01-21T16:01:45.488Z,0.58
2019-01-21T16:04:27.333Z,0.39
2019-01-21T16:07:05.679Z,-0.02
2019-01-21T16:10:01.157Z,0.30
2019-01-21T16:12:40.966Z,0.35
2019-01-21T16:15:18.456Z,-0.08
2019-01-21T16:17:59.672Z,0.16
2019-01-21T16:20:49.825Z,0.29
2019-01-21T16:23:41.916Z,-0.17
2019-01-21T16:26:16.063Z,0.26
2019-01-21T16:29:12.820Z,-0.23
2019-01-21T16:31:51.013Z,-0.16
2019-01-21T16:34:37.521Z,-0.10
2019-01-21T16:37:17.056Z,-0.40
2019-01-21T16:40:12.362Z,-0.21
2019-01-21T16:42:39.216Z,-0.23
2019-01-21T16:45:06.040Z,-0.45
2019-01-21T16:47:32.864Z,-0.30
2019-01-21T16:49:59.616Z,-0.18
2019-01-21T16:52:26.467Z,-0.50
2019-01-21T16:54:53.569Z,-0.14
2019-01-21T16:57:20.352Z,-0.01
2019-01-21T16:59:47.120Z,-0.55
2019-01-21T17:02:13.860Z,-0.23
2019-01-21T17:04:40.614Z,-0.19
2019-01-21T17:07:07.356Z,-0.56
2019-01-21T17:09:34.163Z,-0.28
2019-01-21T17:12:00.893Z,-0.25
2019-01-21T17:14:27.669Z,-0.76
2019-01-21T17:16:54.425Z,-0.30
2019-01-21T17:19:21.192Z,-0.27
2019-01-21T17:21:47.965Z,-0.88
2019-01-21T17:24:14.816Z,-0.42
2019-01-21T17:26:41.796Z,-0.35
2019-01-21T17:29:08.568Z,-0.73
2019-01-21T17:31:35.468Z,-0.50
2019-01-21T17:34:02.292Z,-0.45
2019-01-21T17:36:29.112Z,-0.53
2019-01-21T17:38:55.873Z,-0.61
2019-01-21T17:41:22.611Z,-1.16
2019-01-21T17:43:49.360Z,-0.75
2019-01-21T17:46:16.113Z,-0.62
2019-01-21T17:48:42.964Z,-0.67
2019-01-21T17:51:09.743Z,-0.98
2019-01-21T17:53:36.611Z,-0.71
2019-01-21T17:56:04.039Z,-0.58
2019-01-21T17:58:30.828Z,-1.20
2019-01-21T18:00:57.649Z,-0.74
2019-01-21T18:03:24.400Z,-0.60
2019-01-21T18:05:51.382Z,-1.15
2019-01-21T18:08:18.166Z,-1.01
2019-01-21T18:10:45.500Z,-0.84
2019-01-21T18:13:11.684Z,-1.32
2019-01-21T18:15:38.449Z,-0.96
2019-01-21T18:18:05.365Z,-0.72
2019-01-21T18:20:32.163Z,-1.33
2019-01-21T18:22:58.903Z,-1.06
2019-01-21T18:25:25.662Z,-1.01
2019-01-21T18:27:52.396Z,-1.52
2019-01-21T18:30:22.364Z,-1.14
2019-01-21T18:32:49.116Z,-1.16
2019-01-21T18:35:15.884Z,-1.67
2019-01-21T18:37:42.664Z,-1.46
2019-01-21T18:40:11.916Z,-1.28
2019-01-21T18:42:38.764Z,-1.87
2019-01-21T18:45:06.024Z,-1.41
2019-01-21T18:47:32.773Z,-1.40
2019-01-21T18:49:59.644Z,-2.02
2019-01-21T18:52:26.396Z,-1.62
2019-01-21T18:54:53.135Z,-1.61
2019-01-21T18:57:19.867Z,-2.28
2019-01-21T18:59:46.632Z,-1.75
2019-01-21T19:02:13.395Z,-1.50
2019-01-21T19:04:40.148Z,-2.21
2019-01-21T19:07:06.885Z,-1.68
2019-01-21T19:09:33.668Z,-1.74
2019-01-21T19:12:00.429Z,-2.39
2019-01-21T19:14:27.181Z,-2.19
2019-01-21T19:16:53.948Z,-1.93
2019-01-21T19:19:20.718Z,-2.28
2019-01-21T19:21:53.414Z,-1.81
2019-01-21T19:24:14.195Z,-1.64
2019-01-21T19:26:41.573Z,-2.34
2019-01-21T19:29:08.314Z,-2.06
2019-01-21T19:31:36.079Z,-2.02
2019-01-21T19:34:03.088Z,-2.51
2019-01-21T19:36:29.873Z,-2.33
2019-01-21T19:38:56.604Z,-2.00
2019-01-21T19:41:23.361Z,-2.45
2019-01-21T19:43:50.088Z,-2.61
2019-01-21T19:46:16.869Z,-2.31
2019-01-21T19:48:43.600Z,-2.69
2019-01-21T19:51:10.352Z,-2.04
2019-01-21T19:53:37.102Z,-1.91
2019-01-21T19:56:03.857Z,-2.63
2019-01-21T19:58:30.585Z,-2.33
2019-01-21T20:00:57.335Z,-2.05
2019-01-21T20:03:24.148Z,-2.70
2019-01-21T20:05:50.893Z,-2.23
2019-01-21T20:08:17.620Z,-2.39
2019-01-21T20:10:44.401Z,-2.79
2019-01-21T20:13:11.132Z,-2.33
2019-01-21T20:15:38.336Z,-2.27
2019-01-21T20:18:04.664Z,-2.60
2019-01-21T20:20:35.033Z,-2.42
2019-01-21T20:23:01.763Z,-2.64
2019-01-21T20:25:28.524Z,-3.07
2019-01-21T20:27:55.260Z,-2.80
2019-01-21T20:30:22.074Z,-2.73
2019-01-21T20:32:48.813Z,-2.93
2019-01-21T20:35:15.625Z,-2.47
2019-01-21T20:37:42.378Z,-2.54
2019-01-21T20:40:12.819Z,-3.08
2019-01-21T20:42:39.588Z,-2.87
2019-01-21T20:45:06.816Z,-2.58
2019-01-21T20:47:33.604Z,-2.45
2019-01-21T20:50:00.337Z,-2.47
2019-01-21T20:52:27.097Z,-2.92
2019-01-21T20:54:53.884Z,-2.72
2019-01-21T20:57:20.588Z,-2.85
2019-01-21T20:59:47.324Z,-3.45
2019-01-21T21:02:14.081Z,-2.84
2019-01-21T21:04:40.809Z,-2.68
2019-01-21T21:07:07.576Z,-3.14
2019-01-21T21:09:34.295Z,-3.03
2019-01-21T21:12:01.053Z,-2.84
2019-01-21T21:14:27.800Z,-3.36
2019-01-21T21:16:54.557Z,-2.95
2019-01-21T21:19:21.288Z,-2.87
2019-01-21T21:21:48.061Z,-3.41
2019-01-21T21:24:14.788Z,-2.94
2019-01-21T21:26:42.201Z,-3.46
2019-01-21T21:29:08.997Z,-3.15
2019-01-21T21:31:35.781Z,-2.97
2019-01-21T21:34:02.514Z,-3.03
2019-01-21T21:36:29.272Z,-3.63
2019-01-21T21:38:56.009Z,-3.21
2019-01-21T21:41:22.752Z,-3.15
2019-01-21T21:43:49.653Z,-3.60
2019-01-21T21:46:16.416Z,-3.44
2019-01-21T21:48:43.170Z,-3.87
2019-01-21T21:51:09.920Z,-3.43
2019-01-21T21:53:36.670Z,-3.42
2019-01-21T21:56:03.420Z,-4.04
2019-01-21T21:58:30.163Z,-3.53
2019-01-21T22:00:56.922Z,-3.42
2019-01-21T22:03:23.696Z,-3.48
2019-01-21T22:05:50.536Z,-3.48
2019-01-21T22:08:17.312Z,-3.93
2019-01-21T22:10:44.040Z,-3.61
2019-01-21T22:13:10.813Z,-3.48
2019-01-21T22:15:37.580Z,-4.23
2019-01-21T22:18:04.424Z,-3.94
2019-01-21T22:20:31.166Z,-3.84
2019-01-21T22:22:57.920Z,-4.24
2019-01-21T22:25:24.672Z,-4.00
2019-01-21T22:27:51.421Z,-3.50
2019-01-21T22:30:21.292Z,-4.24
2019-01-21T22:32:48.092Z,-4.03
2019-01-21T22:35:14.853Z,-3.63
2019-01-21T22:37:41.660Z,-4.13
2019-01-21T22:40:11.020Z,-3.84
2019-01-21T22:42:37.781Z,-3.55
2019-01-21T22:45:05.017Z,-4.15
2019-01-21T22:47:31.825Z,-4.24
2019-01-21T22:49:58.605Z,-4.36
2019-01-21T22:52:25.388Z,-4.07
2019-01-21T22:54:52.134Z,-4.29
2019-01-21T22:57:18.925Z,-4.39
2019-01-21T22:59:45.699Z,-4.13
2019-01-21T23:02:12.558Z,-4.62
2019-01-21T23:04:39.327Z,-5.05
2019-01-21T23:07:06.122Z,-5.26
2019-01-21T23:09:32.997Z,-4.79
2019-01-21T23:11:59.801Z,-5.01
2019-01-21T23:14:26.557Z,-4.91
2019-01-21T23:16:53.357Z,-4.79
2019-01-21T23:19:20.128Z,-4.38
2019-01-21T23:21:46.901Z,-4.70
2019-01-21T23:24:16.466Z,-4.66
2019-01-21T23:26:40.452Z,-4.47
2019-01-21T23:29:07.246Z,-4.96
2019-01-21T23:31:34.040Z,-4.88
2019-01-21T23:34:00.806Z,-5.05
2019-01-21T23:36:27.585Z,-5.08
2019-01-21T23:38:54.344Z,-5.16
2019-01-21T23:41:21.102Z,-5.23
2019-01-21T23:43:47.872Z,-5.20
2019-01-21T23:46:14.842Z,-4.88
2019-01-21T23:48:41.635Z,-5.22
2019-01-21T23:51:08.489Z,-5.31
2019-01-21T23:53:35.268Z,-4.88
2019-01-21T23:56:02.044Z,-5.18
2019-01-21T23:58:28.808Z,-4.79
